sensor_id;sensor_type;location;lat;lon;timestamp;P1;durP1;ratioP1;P2;durP2;ratioP2
18503;SDS011;9381;54.244;10.074;2023-04-07T00:02:35;13.83;;;10.67;;
18503;SDS011;9381;54.244;10.074;2023-04-07T00:07:35;15.13;;;10.70;;
18503;SDS011;9381;54.244;10.074;2023-04-07T00:12:36;14.82;;;10.48;;
18503;SDS011;9381;54.244;10.074;2023-04-07T00:17:36;12.77;;;10.05;;
18503;SDS011;9381;54.244;10.074;2023-04-07T00:22:36;12.52;;;9.77;;
18503;SDS011;9381;54.244;10.074;2023-04-07T00:27:36;14.95;;;9.98;;
18503;SDS011;9381;54.244;10.074;2023-04-07T00:32:37;13.00;;;9.05;;
18503;SDS011;9381;54.244;10.074;2023-04-07T00:37:37;14.30;;;9.45;;
18503;SDS011;9381;54.244;10.074;2023-04-07T00:42:37;10.67;;;9.10;;
18503;SDS011;9381;54.244;10.074;2023-04-07T00:47:38;12.57;;;9.10;;
18503;SDS011;9381;54.244;10.074;2023-04-07T00:52:39;13.30;;;8.93;;
18503;SDS011;9381;54.244;10.074;2023-04-07T00:57:40;13.20;;;9.07;;
18503;SDS011;9381;54.244;10.074;2023-04-07T01:02:41;11.67;;;8.50;;
18503;SDS011;9381;54.244;10.074;2023-04-07T01:18:31;9.23;;;7.73;;
18503;SDS011;9381;54.244;10.074;2023-04-07T01:34:33;9.93;;;7.40;;
18503;SDS011;9381;54.244;10.074;2023-04-07T01:39:35;11.60;;;7.30;;
18503;SDS011;9381;54.244;10.074;2023-04-07T01:44:37;8.73;;;7.50;;
18503;SDS011;9381;54.244;10.074;2023-04-07T01:49:39;8.47;;;7.53;;
18503;SDS011;9381;54.244;10.074;2023-04-07T01:54:40;10.33;;;7.20;;
18503;SDS011;9381;54.244;10.074;2023-04-07T01:59:40;8.90;;;7.00;;
18503;SDS011;9381;54.244;10.074;2023-04-07T02:04:45;9.30;;;7.13;;
18503;SDS011;9381;54.244;10.074;2023-04-07T02:09:54;9.40;;;7.10;;
18503;SDS011;9381;54.244;10.074;2023-04-07T02:14:57;9.83;;;7.10;;
18503;SDS011;9381;54.244;10.074;2023-04-07T02:20:00;8.77;;;6.70;;
18503;SDS011;9381;54.244;10.074;2023-04-07T02:25:02;10.77;;;7.23;;
18503;SDS011;9381;54.244;10.074;2023-04-07T02:30:27;7.33;;;6.63;;
18503;SDS011;9381;54.244;10.074;2023-04-07T02:35:28;8.63;;;7.50;;
18503;SDS011;9381;54.244;10.074;2023-04-07T02:40:28;11.00;;;7.60;;
18503;SDS011;9381;54.244;10.074;2023-04-07T02:45:29;10.30;;;7.00;;
18503;SDS011;9381;54.244;10.074;2023-04-07T02:50:30;9.20;;;7.00;;
18503;SDS011;9381;54.244;10.074;2023-04-07T02:55:30;8.67;;;7.37;;
18503;SDS011;9381;54.244;10.074;2023-04-07T03:00:30;10.23;;;6.57;;
18503;SDS011;9381;54.244;10.074;2023-04-07T03:05:31;7.80;;;6.95;;
18503;SDS011;9381;54.244;10.074;2023-04-07T03:10:31;11.98;;;7.70;;
18503;SDS011;9381;54.244;10.074;2023-04-07T03:15:31;12.57;;;7.10;;
18503;SDS011;9381;54.244;10.074;2023-04-07T03:20:32;9.93;;;7.03;;
18503;SDS011;9381;54.244;10.074;2023-04-07T03:25:32;9.45;;;7.18;;
18503;SDS011;9381;54.244;10.074;2023-04-07T03:30:32;8.17;;;6.93;;
18503;SDS011;9381;54.244;10.074;2023-04-07T03:35:33;11.82;;;7.47;;
18503;SDS011;9381;54.244;10.074;2023-04-07T03:40:33;11.83;;;7.63;;
18503;SDS011;9381;54.244;10.074;2023-04-07T03:45:34;8.13;;;7.33;;
18503;SDS011;9381;54.244;10.074;2023-04-07T03:50:35;8.77;;;7.43;;
18503;SDS011;9381;54.244;10.074;2023-04-07T03:55:35;13.77;;;8.50;;
18503;SDS011;9381;54.244;10.074;2023-04-07T04:00:35;10.33;;;6.93;;
18503;SDS011;9381;54.244;10.074;2023-04-07T04:05:36;9.30;;;7.47;;
18503;SDS011;9381;54.244;10.074;2023-04-07T04:10:36;8.52;;;7.38;;
18503;SDS011;9381;54.244;10.074;2023-04-07T04:15:36;8.77;;;7.15;;
18503;SDS011;9381;54.244;10.074;2023-04-07T04:20:36;11.02;;;8.43;;
18503;SDS011;9381;54.244;10.074;2023-04-07T04:25:37;10.03;;;7.33;;
18503;SDS011;9381;54.244;10.074;2023-04-07T04:30:39;9.90;;;7.70;;
18503;SDS011;9381;54.244;10.074;2023-04-07T04:35:40;11.37;;;8.57;;
18503;SDS011;9381;54.244;10.074;2023-04-07T04:40:40;12.45;;;8.07;;
18503;SDS011;9381;54.244;10.074;2023-04-07T04:45:41;10.30;;;8.47;;
18503;SDS011;9381;54.244;10.074;2023-04-07T04:50:41;11.45;;;8.73;;
18503;SDS011;9381;54.244;10.074;2023-04-07T04:55:42;11.00;;;9.27;;
18503;SDS011;9381;54.244;10.074;2023-04-07T05:00:46;13.03;;;9.90;;
18503;SDS011;9381;54.244;10.074;2023-04-07T05:05:46;14.10;;;10.50;;
18503;SDS011;9381;54.244;10.074;2023-04-07T05:10:47;12.57;;;10.13;;
18503;SDS011;9381;54.244;10.074;2023-04-07T05:15:48;15.40;;;12.90;;
18503;SDS011;9381;54.244;10.074;2023-04-07T05:20:48;14.17;;;12.67;;
18503;SDS011;9381;54.244;10.074;2023-04-07T05:25:49;17.93;;;13.67;;
18503;SDS011;9381;54.244;10.074;2023-04-07T05:30:49;16.75;;;13.30;;
18503;SDS011;9381;54.244;10.074;2023-04-07T05:35:50;18.90;;;14.03;;
18503;SDS011;9381;54.244;10.074;2023-04-07T05:40:50;19.13;;;13.45;;
18503;SDS011;9381;54.244;10.074;2023-04-07T05:45:50;22.03;;;13.27;;
18503;SDS011;9381;54.244;10.074;2023-04-07T05:50:51;16.67;;;13.67;;
18503;SDS011;9381;54.244;10.074;2023-04-07T05:55:51;18.83;;;13.20;;
18503;SDS011;9381;54.244;10.074;2023-04-07T06:00:51;17.37;;;13.07;;
18503;SDS011;9381;54.244;10.074;2023-04-07T06:05:52;17.43;;;13.87;;
18503;SDS011;9381;54.244;10.074;2023-04-07T06:10:52;18.92;;;14.32;;
18503;SDS011;9381;54.244;10.074;2023-04-07T06:15:53;16.10;;;13.30;;
18503;SDS011;9381;54.244;10.074;2023-04-07T06:20:55;17.90;;;13.83;;
18503;SDS011;9381;54.244;10.074;2023-04-07T06:25:56;17.27;;;14.17;;
18503;SDS011;9381;54.244;10.074;2023-04-07T06:30:56;17.57;;;13.00;;
18503;SDS011;9381;54.244;10.074;2023-04-07T06:35:57;17.77;;;13.13;;
18503;SDS011;9381;54.244;10.074;2023-04-07T06:40:57;15.00;;;11.90;;
18503;SDS011;9381;54.244;10.074;2023-04-07T06:45:58;14.97;;;12.30;;
18503;SDS011;9381;54.244;10.074;2023-04-07T06:50:58;16.23;;;12.33;;
18503;SDS011;9381;54.244;10.074;2023-04-07T06:56:08;14.50;;;11.43;;
18503;SDS011;9381;54.244;10.074;2023-04-07T07:01:10;14.27;;;10.57;;
18503;SDS011;9381;54.244;10.074;2023-04-07T07:06:10;14.60;;;10.97;;
18503;SDS011;9381;54.244;10.074;2023-04-07T07:11:11;22.07;;;11.27;;
18503;SDS011;9381;54.244;10.074;2023-04-07T07:16:11;14.50;;;9.73;;
18503;SDS011;9381;54.244;10.074;2023-04-07T07:21:11;13.40;;;9.40;;
18503;SDS011;9381;54.244;10.074;2023-04-07T07:26:12;16.27;;;9.67;;
18503;SDS011;9381;54.244;10.074;2023-04-07T07:31:12;13.90;;;8.80;;
18503;SDS011;9381;54.244;10.074;2023-04-07T07:36:14;13.03;;;8.80;;
18503;SDS011;9381;54.244;10.074;2023-04-07T07:41:14;10.70;;;8.20;;
18503;SDS011;9381;54.244;10.074;2023-04-07T07:46:14;13.07;;;8.27;;
18503;SDS011;9381;54.244;10.074;2023-04-07T07:51:15;11.17;;;7.93;;
18503;SDS011;9381;54.244;10.074;2023-04-07T07:56:15;13.05;;;7.95;;
18503;SDS011;9381;54.244;10.074;2023-04-07T08:01:15;10.40;;;7.13;;
18503;SDS011;9381;54.244;10.074;2023-04-07T08:06:16;13.90;;;7.70;;
18503;SDS011;9381;54.244;10.074;2023-04-07T08:11:16;10.97;;;6.90;;
18503;SDS011;9381;54.244;10.074;2023-04-07T08:16:17;10.55;;;6.93;;
18503;SDS011;9381;54.244;10.074;2023-04-07T08:21:18;9.87;;;6.73;;
18503;SDS011;9381;54.244;10.074;2023-04-07T08:26:20;11.37;;;6.87;;
18503;SDS011;9381;54.244;10.074;2023-04-07T08:31:20;10.77;;;6.60;;
18503;SDS011;9381;54.244;10.074;2023-04-07T08:36:21;9.43;;;6.17;;
18503;SDS011;9381;54.244;10.074;2023-04-07T08:41:54;9.10;;;6.35;;
18503;SDS011;9381;54.244;10.074;2023-04-07T08:46:49;8.57;;;5.70;;
18503;SDS011;9381;54.244;10.074;2023-04-07T08:51:52;10.53;;;6.73;;
18503;SDS011;9381;54.244;10.074;2023-04-07T08:56:53;10.57;;;6.87;;
18503;SDS011;9381;54.244;10.074;2023-04-07T09:01:54;9.87;;;6.40;;
18503;SDS011;9381;54.244;10.074;2023-04-07T09:06:55;7.70;;;6.20;;
18503;SDS011;9381;54.244;10.074;2023-04-07T09:11:55;9.57;;;6.07;;
18503;SDS011;9381;54.244;10.074;2023-04-07T09:16:55;11.70;;;5.97;;
18503;SDS011;9381;54.244;10.074;2023-04-07T09:21:56;7.87;;;6.00;;
18503;SDS011;9381;54.244;10.074;2023-04-07T09:27:15;8.20;;;5.57;;
18503;SDS011;9381;54.244;10.074;2023-04-07T09:32:34;9.80;;;5.50;;
18503;SDS011;9381;54.244;10.074;2023-04-07T09:37:37;7.87;;;5.53;;
18503;SDS011;9381;54.244;10.074;2023-04-07T09:42:44;8.30;;;5.77;;
18503;SDS011;9381;54.244;10.074;2023-04-07T09:47:45;9.53;;;5.40;;
18503;SDS011;9381;54.244;10.074;2023-04-07T09:52:49;6.67;;;4.77;;
18503;SDS011;9381;54.244;10.074;2023-04-07T09:57:53;9.70;;;4.80;;
18503;SDS011;9381;54.244;10.074;2023-04-07T10:02:56;7.67;;;4.47;;
18503;SDS011;9381;54.244;10.074;2023-04-07T10:07:57;6.23;;;4.00;;
18503;SDS011;9381;54.244;10.074;2023-04-07T10:13:00;5.87;;;4.33;;
18503;SDS011;9381;54.244;10.074;2023-04-07T10:18:04;6.47;;;4.27;;
18503;SDS011;9381;54.244;10.074;2023-04-07T10:23:17;6.93;;;4.43;;
18503;SDS011;9381;54.244;10.074;2023-04-07T10:28:21;5.57;;;3.60;;
18503;SDS011;9381;54.244;10.074;2023-04-07T10:44:07;3.27;;;2.20;;
18503;SDS011;9381;54.244;10.074;2023-04-07T10:49:09;2.47;;;1.70;;
18503;SDS011;9381;54.244;10.074;2023-04-07T10:54:17;3.30;;;1.70;;
18503;SDS011;9381;54.244;10.074;2023-04-07T10:59:22;4.37;;;2.07;;
18503;SDS011;9381;54.244;10.074;2023-04-07T11:04:34;2.13;;;1.67;;
18503;SDS011;9381;54.244;10.074;2023-04-07T11:09:36;3.03;;;2.10;;
18503;SDS011;9381;54.244;10.074;2023-04-07T11:14:36;4.20;;;2.90;;
18503;SDS011;9381;54.244;10.074;2023-04-07T11:19:49;5.30;;;2.30;;
18503;SDS011;9381;54.244;10.074;2023-04-07T11:24:53;3.97;;;1.90;;
18503;SDS011;9381;54.244;10.074;2023-04-07T11:29:53;4.87;;;2.00;;
18503;SDS011;9381;54.244;10.074;2023-04-07T11:34:54;3.30;;;1.80;;
18503;SDS011;9381;54.244;10.074;2023-04-07T11:39:55;1.63;;;1.53;;
18503;SDS011;9381;54.244;10.074;2023-04-07T11:44:57;7.90;;;2.07;;
18503;SDS011;9381;54.244;10.074;2023-04-07T11:49:57;3.23;;;2.03;;
18503;SDS011;9381;54.244;10.074;2023-04-07T11:54:57;3.10;;;2.20;;
18503;SDS011;9381;54.244;10.074;2023-04-07T12:00:08;2.30;;;1.97;;
18503;SDS011;9381;54.244;10.074;2023-04-07T12:05:11;6.50;;;2.37;;
18503;SDS011;9381;54.244;10.074;2023-04-07T12:10:21;3.33;;;2.23;;
18503;SDS011;9381;54.244;10.074;2023-04-07T12:15:25;6.20;;;3.80;;
18503;SDS011;9381;54.244;10.074;2023-04-07T12:20:26;4.03;;;2.67;;
18503;SDS011;9381;54.244;10.074;2023-04-07T12:25:26;9.83;;;7.90;;
18503;SDS011;9381;54.244;10.074;2023-04-07T12:30:26;3.30;;;3.00;;
18503;SDS011;9381;54.244;10.074;2023-04-07T12:35:26;3.97;;;2.40;;
18503;SDS011;9381;54.244;10.074;2023-04-07T12:40:27;3.43;;;3.13;;
18503;SDS011;9381;54.244;10.074;2023-04-07T12:45:28;5.83;;;4.60;;
18503;SDS011;9381;54.244;10.074;2023-04-07T12:50:30;5.43;;;4.30;;
18503;SDS011;9381;54.244;10.074;2023-04-07T12:55:31;4.33;;;3.43;;
18503;SDS011;9381;54.244;10.074;2023-04-07T13:00:35;5.17;;;3.60;;
18503;SDS011;9381;54.244;10.074;2023-04-07T13:05:35;6.30;;;4.40;;
18503;SDS011;9381;54.244;10.074;2023-04-07T13:10:36;5.30;;;3.53;;
18503;SDS011;9381;54.244;10.074;2023-04-07T13:15:36;5.28;;;3.42;;
18503;SDS011;9381;54.244;10.074;2023-04-07T13:20:36;5.95;;;4.78;;
18503;SDS011;9381;54.244;10.074;2023-04-07T13:25:37;8.77;;;5.50;;
18503;SDS011;9381;54.244;10.074;2023-04-07T13:30:38;6.75;;;4.72;;
18503;SDS011;9381;54.244;10.074;2023-04-07T13:35:38;4.90;;;3.80;;
18503;SDS011;9381;54.244;10.074;2023-04-07T13:40:38;5.32;;;4.35;;
18503;SDS011;9381;54.244;10.074;2023-04-07T13:45:39;8.93;;;6.13;;
18503;SDS011;9381;54.244;10.074;2023-04-07T13:50:39;4.88;;;3.90;;
18503;SDS011;9381;54.244;10.074;2023-04-07T13:55:39;5.30;;;4.60;;
18503;SDS011;9381;54.244;10.074;2023-04-07T14:00:40;4.67;;;4.17;;
18503;SDS011;9381;54.244;10.074;2023-04-07T14:05:40;5.13;;;4.63;;
18503;SDS011;9381;54.244;10.074;2023-04-07T14:10:40;8.32;;;6.72;;
18503;SDS011;9381;54.244;10.074;2023-04-07T14:15:41;7.50;;;5.17;;
18503;SDS011;9381;54.244;10.074;2023-04-07T14:20:42;5.67;;;4.00;;
18503;SDS011;9381;54.244;10.074;2023-04-07T14:25:42;6.68;;;4.50;;
18503;SDS011;9381;54.244;10.074;2023-04-07T14:30:42;5.15;;;4.38;;
18503;SDS011;9381;54.244;10.074;2023-04-07T14:35:43;4.83;;;4.33;;
18503;SDS011;9381;54.244;10.074;2023-04-07T14:40:43;7.47;;;4.93;;
18503;SDS011;9381;54.244;10.074;2023-04-07T14:45:44;5.40;;;3.50;;
18503;SDS011;9381;54.244;10.074;2023-04-07T14:50:44;5.87;;;3.67;;
18503;SDS011;9381;54.244;10.074;2023-04-07T14:55:45;5.17;;;3.40;;
18503;SDS011;9381;54.244;10.074;2023-04-07T15:00:45;5.50;;;3.87;;
18503;SDS011;9381;54.244;10.074;2023-04-07T15:05:46;5.57;;;3.83;;
18503;SDS011;9381;54.244;10.074;2023-04-07T15:10:46;6.18;;;4.65;;
18503;SDS011;9381;54.244;10.074;2023-04-07T15:15:46;8.27;;;4.88;;
18503;SDS011;9381;54.244;10.074;2023-04-07T15:20:47;6.82;;;4.28;;
18503;SDS011;9381;54.244;10.074;2023-04-07T15:25:47;14.32;;;8.65;;
18503;SDS011;9381;54.244;10.074;2023-04-07T15:30:54;5.30;;;3.80;;
18503;SDS011;9381;54.244;10.074;2023-04-07T15:35:55;6.57;;;4.80;;
18503;SDS011;9381;54.244;10.074;2023-04-07T15:40:56;6.10;;;4.50;;
18503;SDS011;9381;54.244;10.074;2023-04-07T15:45:56;7.73;;;4.70;;
18503;SDS011;9381;54.244;10.074;2023-04-07T15:50:56;6.30;;;4.35;;
18503;SDS011;9381;54.244;10.074;2023-04-07T15:55:57;10.47;;;8.30;;
18503;SDS011;9381;54.244;10.074;2023-04-07T16:00:57;5.90;;;5.00;;
18503;SDS011;9381;54.244;10.074;2023-04-07T16:05:58;7.03;;;4.63;;
18503;SDS011;9381;54.244;10.074;2023-04-07T16:10:58;6.25;;;4.53;;
18503;SDS011;9381;54.244;10.074;2023-04-07T16:15:59;4.93;;;4.03;;
18503;SDS011;9381;54.244;10.074;2023-04-07T16:20:59;5.47;;;4.33;;
18503;SDS011;9381;54.244;10.074;2023-04-07T16:26:00;6.30;;;4.20;;
18503;SDS011;9381;54.244;10.074;2023-04-07T16:31:00;6.63;;;5.00;;
18503;SDS011;9381;54.244;10.074;2023-04-07T16:36:01;6.93;;;4.80;;
18503;SDS011;9381;54.244;10.074;2023-04-07T16:41:02;7.03;;;5.47;;
18503;SDS011;9381;54.244;10.074;2023-04-07T16:46:02;7.80;;;5.70;;
18503;SDS011;9381;54.244;10.074;2023-04-07T16:51:04;7.33;;;5.90;;
18503;SDS011;9381;54.244;10.074;2023-04-07T16:56:05;10.17;;;5.83;;
18503;SDS011;9381;54.244;10.074;2023-04-07T17:01:08;7.80;;;4.90;;
18503;SDS011;9381;54.244;10.074;2023-04-07T17:06:08;8.63;;;5.37;;
18503;SDS011;9381;54.244;10.074;2023-04-07T17:11:09;8.48;;;6.40;;
18503;SDS011;9381;54.244;10.074;2023-04-07T17:16:13;12.83;;;7.60;;
18503;SDS011;9381;54.244;10.074;2023-04-07T17:21:13;11.57;;;7.60;;
18503;SDS011;9381;54.244;10.074;2023-04-07T17:26:16;15.33;;;8.07;;
18503;SDS011;9381;54.244;10.074;2023-04-07T17:31:17;12.18;;;8.20;;
18503;SDS011;9381;54.244;10.074;2023-04-07T17:36:17;13.02;;;8.57;;
18503;SDS011;9381;54.244;10.074;2023-04-07T17:41:18;14.73;;;8.70;;
18503;SDS011;9381;54.244;10.074;2023-04-07T17:46:20;9.57;;;7.67;;
18503;SDS011;9381;54.244;10.074;2023-04-07T17:51:23;14.50;;;8.67;;
18503;SDS011;9381;54.244;10.074;2023-04-07T17:56:26;11.07;;;7.83;;
18503;SDS011;9381;54.244;10.074;2023-04-07T18:01:27;12.77;;;8.70;;
18503;SDS011;9381;54.244;10.074;2023-04-07T18:06:28;15.97;;;9.37;;
18503;SDS011;9381;54.244;10.074;2023-04-07T18:11:28;13.50;;;8.43;;
18503;SDS011;9381;54.244;10.074;2023-04-07T18:16:29;12.30;;;7.55;;
18503;SDS011;9381;54.244;10.074;2023-04-07T18:21:29;9.53;;;7.30;;
18503;SDS011;9381;54.244;10.074;2023-04-07T18:26:30;14.50;;;8.40;;
18503;SDS011;9381;54.244;10.074;2023-04-07T18:31:31;9.63;;;7.27;;
18503;SDS011;9381;54.244;10.074;2023-04-07T18:36:31;10.00;;;7.83;;
18503;SDS011;9381;54.244;10.074;2023-04-07T18:41:32;13.57;;;7.90;;
18503;SDS011;9381;54.244;10.074;2023-04-07T18:46:32;10.80;;;7.43;;
18503;SDS011;9381;54.244;10.074;2023-04-07T18:51:33;11.20;;;8.57;;
18503;SDS011;9381;54.244;10.074;2023-04-07T18:56:34;10.27;;;7.53;;
18503;SDS011;9381;54.244;10.074;2023-04-07T19:01:35;12.90;;;9.00;;
18503;SDS011;9381;54.244;10.074;2023-04-07T19:06:35;10.87;;;7.30;;
18503;SDS011;9381;54.244;10.074;2023-04-07T19:11:36;11.40;;;6.43;;
18503;SDS011;9381;54.244;10.074;2023-04-07T19:16:36;8.10;;;6.55;;
18503;SDS011;9381;54.244;10.074;2023-04-07T19:21:37;10.53;;;6.80;;
18503;SDS011;9381;54.244;10.074;2023-04-07T19:26:39;12.90;;;7.50;;
18503;SDS011;9381;54.244;10.074;2023-04-07T19:31:39;11.67;;;8.40;;
18503;SDS011;9381;54.244;10.074;2023-04-07T19:36:40;10.57;;;8.23;;
18503;SDS011;9381;54.244;10.074;2023-04-07T19:41:40;11.90;;;9.47;;
18503;SDS011;9381;54.244;10.074;2023-04-07T19:46:41;15.07;;;10.00;;
18503;SDS011;9381;54.244;10.074;2023-04-07T19:51:41;13.67;;;9.87;;
18503;SDS011;9381;54.244;10.074;2023-04-07T19:56:42;11.37;;;9.40;;
18503;SDS011;9381;54.244;10.074;2023-04-07T20:01:42;12.48;;;9.63;;
18503;SDS011;9381;54.244;10.074;2023-04-07T20:06:42;13.80;;;10.20;;
18503;SDS011;9381;54.244;10.074;2023-04-07T20:11:43;12.98;;;10.30;;
18503;SDS011;9381;54.244;10.074;2023-04-07T20:16:44;13.63;;;10.30;;
18503;SDS011;9381;54.244;10.074;2023-04-07T20:21:44;12.57;;;10.40;;
18503;SDS011;9381;54.244;10.074;2023-04-07T20:26:45;14.87;;;10.37;;
18503;SDS011;9381;54.244;10.074;2023-04-07T20:31:45;12.90;;;10.57;;
18503;SDS011;9381;54.244;10.074;2023-04-07T20:36:46;13.60;;;10.70;;
18503;SDS011;9381;54.244;10.074;2023-04-07T20:41:48;13.50;;;10.17;;
18503;SDS011;9381;54.244;10.074;2023-04-07T20:46:48;15.30;;;11.57;;
18503;SDS011;9381;54.244;10.074;2023-04-07T20:51:48;16.85;;;11.73;;
18503;SDS011;9381;54.244;10.074;2023-04-07T20:56:49;18.97;;;13.57;;
18503;SDS011;9381;54.244;10.074;2023-04-07T21:01:49;19.00;;;12.87;;
18503;SDS011;9381;54.244;10.074;2023-04-07T21:06:50;18.23;;;12.67;;
18503;SDS011;9381;54.244;10.074;2023-04-07T21:11:50;21.50;;;14.23;;
18503;SDS011;9381;54.244;10.074;2023-04-07T21:16:50;21.70;;;13.50;;
18503;SDS011;9381;54.244;10.074;2023-04-07T21:21:51;19.10;;;12.83;;
18503;SDS011;9381;54.244;10.074;2023-04-07T21:26:54;20.15;;;12.27;;
18503;SDS011;9381;54.244;10.074;2023-04-07T21:31:55;20.73;;;13.33;;
18503;SDS011;9381;54.244;10.074;2023-04-07T21:36:55;19.07;;;11.50;;
18503;SDS011;9381;54.244;10.074;2023-04-07T21:41:55;16.43;;;11.80;;
18503;SDS011;9381;54.244;10.074;2023-04-07T21:46:56;22.30;;;12.17;;
18503;SDS011;9381;54.244;10.074;2023-04-07T21:51:56;19.67;;;11.93;;
18503;SDS011;9381;54.244;10.074;2023-04-07T21:56:58;21.40;;;12.40;;
18503;SDS011;9381;54.244;10.074;2023-04-07T22:02:00;27.73;;;13.63;;
18503;SDS011;9381;54.244;10.074;2023-04-07T22:07:01;19.57;;;12.97;;
18503;SDS011;9381;54.244;10.074;2023-04-07T22:12:01;22.40;;;14.30;;
18503;SDS011;9381;54.244;10.074;2023-04-07T22:17:02;24.03;;;13.83;;
18503;SDS011;9381;54.244;10.074;2023-04-07T22:22:02;27.37;;;14.30;;
18503;SDS011;9381;54.244;10.074;2023-04-07T22:27:03;24.30;;;13.70;;
18503;SDS011;9381;54.244;10.074;2023-04-07T22:32:03;22.50;;;14.23;;
18503;SDS011;9381;54.244;10.074;2023-04-07T22:37:04;20.40;;;13.30;;
18503;SDS011;9381;54.244;10.074;2023-04-07T22:42:05;18.53;;;14.13;;
18503;SDS011;9381;54.244;10.074;2023-04-07T22:47:05;20.60;;;13.80;;
18503;SDS011;9381;54.244;10.074;2023-04-07T22:52:05;20.25;;;13.30;;
18503;SDS011;9381;54.244;10.074;2023-04-07T22:57:06;22.70;;;13.68;;
18503;SDS011;9381;54.244;10.074;2023-04-07T23:02:06;20.07;;;12.53;;
18503;SDS011;9381;54.244;10.074;2023-04-07T23:07:09;20.13;;;13.53;;
18503;SDS011;9381;54.244;10.074;2023-04-07T23:12:09;20.13;;;13.93;;
18503;SDS011;9381;54.244;10.074;2023-04-07T23:17:10;24.10;;;13.23;;
18503;SDS011;9381;54.244;10.074;2023-04-07T23:22:11;18.27;;;12.97;;
18503;SDS011;9381;54.244;10.074;2023-04-07T23:27:11;19.83;;;14.03;;
18503;SDS011;9381;54.244;10.074;2023-04-07T23:32:12;21.67;;;13.50;;
18503;SDS011;9381;54.244;10.074;2023-04-07T23:37:12;19.70;;;12.57;;
18503;SDS011;9381;54.244;10.074;2023-04-07T23:42:13;19.75;;;13.45;;
18503;SDS011;9381;54.244;10.074;2023-04-07T23:47:13;18.23;;;13.57;;
18503;SDS011;9381;54.244;10.074;2023-04-07T23:52:14;21.70;;;13.57;;
18503;SDS011;9381;54.244;10.074;2023-04-07T23:57:15;19.27;;;13.63;;
